createdAt,value
2023-03-22T06:03:16.973Z,23.16
2023-03-22T06:09:17.712Z,23.17
2023-03-22T06:12:15.652Z,23.14
2023-03-22T06:13:15.752Z,23.14
2023-03-22T06:42:17.059Z,23.17
2023-03-22T10:43:22.389Z,23.37
2023-03-22T10:45:22.417Z,23.31
2023-03-22T10:46:22.915Z,23.33
2023-03-22T10:47:22.477Z,23.31
2023-03-22T10:49:22.561Z,23.31
2023-03-22T10:51:22.699Z,23.26
2023-03-22T10:52:22.853Z,23.24
2023-03-22T10:53:22.693Z,23.35
2023-03-22T10:54:25.149Z,23.30
2023-03-22T10:55:22.746Z,23.33
2023-03-22T10:56:22.802Z,23.37
2023-03-22T10:58:40.916Z,23.27
2023-03-22T10:59:40.924Z,23.31
2023-03-22T11:00:42.461Z,23.43
2023-03-22T11:01:42.035Z,23.45
2023-03-22T11:02:41.916Z,23.48
2023-03-22T11:03:41.912Z,23.55
2023-03-22T11:04:41.855Z,23.52
2023-03-22T11:05:41.998Z,23.54
2023-03-22T11:06:41.894Z,23.59
2023-03-22T11:07:40.833Z,23.57
2023-03-22T11:08:40.930Z,23.65
2023-03-22T11:09:41.817Z,23.65
2023-03-22T11:10:41.885Z,23.68
2023-03-22T11:11:41.808Z,23.68
2023-03-22T11:12:40.823Z,23.65
2023-03-22T11:13:42.115Z,23.72
2023-03-22T11:14:41.888Z,23.70
2023-03-22T11:15:42.186Z,23.76
2023-03-22T11:16:42.152Z,23.82
2023-03-22T11:17:43.333Z,23.83
2023-03-22T11:18:42.094Z,23.78
2023-03-22T11:19:42.264Z,23.80
2023-03-22T11:20:42.689Z,23.79
2023-03-22T11:21:42.222Z,23.89
2023-03-22T11:22:41.283Z,23.95
2023-03-22T11:23:42.283Z,23.95
2023-03-22T11:24:41.283Z,23.99
2023-03-22T11:25:41.320Z,23.99
2023-03-22T11:26:42.373Z,24.07
2023-03-22T11:27:42.414Z,24.02
2023-03-22T11:28:41.456Z,24.04
2023-03-22T11:29:41.528Z,23.97
2023-03-22T11:30:41.766Z,23.99
2023-03-22T11:31:41.687Z,23.99
2023-03-22T11:32:42.771Z,23.99
2023-03-22T11:33:42.678Z,23.99
2023-03-22T11:34:42.713Z,23.80
2023-03-22T11:35:41.810Z,23.92
2023-03-22T11:36:41.937Z,23.86
2023-03-22T11:37:42.884Z,23.90
2023-03-22T11:38:43.251Z,23.90
2023-03-22T11:39:42.833Z,23.95
2023-03-22T11:40:43.175Z,23.96
2023-03-22T11:41:42.866Z,24.00
2023-03-22T11:42:43.134Z,24.04
2023-03-22T11:43:43.001Z,23.87
2023-03-22T11:44:43.022Z,23.90
2023-03-22T11:45:43.297Z,23.93
2023-03-22T11:46:43.223Z,23.99
2023-03-22T11:47:43.742Z,23.95
2023-03-22T11:48:43.414Z,24.00
2023-03-22T11:49:43.258Z,24.00
2023-03-22T11:50:43.713Z,24.00
2023-03-22T11:51:43.431Z,24.00
2023-03-22T11:52:43.405Z,24.02
2023-03-22T11:53:43.497Z,23.96
2023-03-22T11:54:43.487Z,23.86
2023-03-22T11:55:43.801Z,23.93
2023-03-22T11:56:43.629Z,23.96
2023-03-22T11:57:42.650Z,24.04
2023-03-22T11:58:42.691Z,23.97
2023-03-22T11:59:43.791Z,23.86
2023-03-22T12:00:42.746Z,23.55
2023-03-22T12:01:43.803Z,23.34
2023-03-22T12:02:43.977Z,23.44
2023-03-22T12:03:44.156Z,23.45
2023-03-22T12:04:44.009Z,23.54
2023-03-22T12:05:44.391Z,23.59
2023-03-22T12:06:44.016Z,23.55
2023-03-22T12:07:43.990Z,23.61
2023-03-22T12:08:44.025Z,23.65
2023-03-22T12:09:42.990Z,23.65
2023-03-22T12:10:44.051Z,23.65
2023-03-22T12:11:44.061Z,23.65
2023-03-22T12:12:44.110Z,23.72
2023-03-22T12:13:43.163Z,23.76
2023-03-22T12:14:44.234Z,23.75
2023-03-22T12:15:43.640Z,23.80
2023-03-22T12:16:44.397Z,23.80
2023-03-22T12:17:44.549Z,23.86
2023-03-22T12:18:44.461Z,23.85
2023-03-22T12:19:43.528Z,23.83
2023-03-22T12:20:44.564Z,23.86
2023-03-22T12:21:44.622Z,23.85
2023-03-22T12:22:43.765Z,23.83
2023-03-22T12:23:44.755Z,23.90
2023-03-22T12:24:44.764Z,23.96
2023-03-22T12:25:43.797Z,23.96
2023-03-22T12:26:44.883Z,23.90
2023-03-22T12:27:43.961Z,23.97
2023-03-22T12:28:43.973Z,23.96
2023-03-22T12:29:44.111Z,23.68
2023-03-22T12:30:45.040Z,23.40
2023-03-22T12:31:45.224Z,23.61
2023-03-22T12:32:45.137Z,23.66
2023-03-22T12:33:45.062Z,23.64
2023-03-22T12:34:45.112Z,23.65
2023-03-22T12:35:44.392Z,23.64
2023-03-22T12:36:45.105Z,23.59
2023-03-22T12:37:45.149Z,23.58
2023-03-22T12:38:44.137Z,23.54
2023-03-22T12:39:44.164Z,23.51
2023-03-22T12:40:45.242Z,23.48
2023-03-22T12:41:45.206Z,23.50
2023-03-22T12:42:51.158Z,23.43
2023-03-22T12:43:45.244Z,23.41
2023-03-22T12:44:55.567Z,23.41
2023-03-22T12:45:45.255Z,23.37
2023-03-22T12:46:45.278Z,23.38
2023-03-22T12:47:45.290Z,23.30
2023-03-22T12:48:46.540Z,23.31
2023-03-22T12:49:45.229Z,23.31
2023-03-22T12:50:45.257Z,23.28
2023-03-22T12:51:45.284Z,23.30
2023-03-22T12:52:45.976Z,23.28
2023-03-22T12:53:45.312Z,23.27
2023-03-22T12:54:45.343Z,23.23
2023-03-22T12:55:45.417Z,23.21
2023-03-22T12:56:45.474Z,23.20
2023-03-22T12:57:45.528Z,23.20
2023-03-22T12:58:45.584Z,23.21
2023-03-22T12:59:45.631Z,23.20
2023-03-22T13:00:45.713Z,23.20
2023-03-22T13:01:45.770Z,23.21
2023-03-22T13:02:45.915Z,23.21
2023-03-22T13:03:45.971Z,23.17
2023-03-22T13:04:45.935Z,23.17
2023-03-22T13:05:44.982Z,23.14
2023-03-22T13:06:46.044Z,23.11
2023-03-22T13:07:45.087Z,23.11
2023-03-22T13:08:45.100Z,23.16
2023-03-22T13:09:45.139Z,23.07
2023-03-22T13:10:45.166Z,23.11
2023-03-22T13:11:46.180Z,23.13
2023-03-22T13:12:46.212Z,23.09
2023-03-22T13:13:46.205Z,23.07
2023-03-22T13:14:46.201Z,23.07
2023-03-22T13:15:46.204Z,23.06
2023-03-22T13:16:46.265Z,23.03
2023-03-22T13:17:45.338Z,23.00
2023-03-22T13:18:46.316Z,23.03
2023-03-22T13:19:46.343Z,23.03
2023-03-22T13:20:46.356Z,22.96
2023-03-22T13:21:46.357Z,22.96
2023-03-22T13:22:46.345Z,22.98
2023-03-22T13:23:46.363Z,22.99
2023-03-22T13:24:46.349Z,22.96
2023-03-22T13:25:46.360Z,23.02
2023-03-22T13:26:45.354Z,22.98
2023-03-22T13:27:46.345Z,22.98
2023-03-22T13:28:46.376Z,22.96
2023-03-22T13:29:45.348Z,23.00
2023-03-22T13:30:45.355Z,22.93
2023-03-22T13:31:46.437Z,22.95
2023-03-22T13:32:46.448Z,22.95
2023-03-22T13:33:46.381Z,22.93
2023-03-22T13:34:46.409Z,22.95
2023-03-22T13:35:46.458Z,22.95
2023-03-22T13:36:46.417Z,22.96
2023-03-22T13:37:46.429Z,22.90
2023-03-22T13:38:46.428Z,22.90
2023-03-22T13:39:46.437Z,22.92
2023-03-22T13:40:46.454Z,22.95
2023-03-22T13:41:46.463Z,22.92
2023-03-22T13:42:46.477Z,22.89
2023-03-22T13:43:46.471Z,22.89
2023-03-22T13:44:46.494Z,22.88
2023-03-22T13:45:46.539Z,22.92
2023-03-22T13:46:46.696Z,22.93
2023-03-22T13:47:46.688Z,22.92
2023-03-22T13:48:46.662Z,22.93
2023-03-22T13:49:46.513Z,22.86
2023-03-22T13:50:46.522Z,22.89
2023-03-22T13:51:46.517Z,22.90
2023-03-22T13:52:45.530Z,22.96
2023-03-22T13:53:45.538Z,22.93
2023-03-22T13:54:46.553Z,22.93
2023-03-22T13:55:46.562Z,22.92
2023-03-22T13:56:45.570Z,22.95
2023-03-22T13:57:46.603Z,22.89
2023-03-22T13:58:46.604Z,22.90
2023-03-22T13:59:47.896Z,22.90
2023-03-22T14:00:46.635Z,22.89
2023-03-22T14:01:45.698Z,22.90
2023-03-22T14:02:46.813Z,22.86
2023-03-22T14:03:46.672Z,22.88
2023-03-22T14:04:45.675Z,22.89
2023-03-22T14:05:46.662Z,22.86
2023-03-22T14:06:46.663Z,22.85
2023-03-22T14:07:45.694Z,22.82
2023-03-22T14:08:45.687Z,22.85
2023-03-22T14:09:46.697Z,22.86
2023-03-22T14:10:46.694Z,22.88
2023-03-22T14:11:46.713Z,22.86
2023-03-22T14:12:46.760Z,22.86
2023-03-22T14:13:46.740Z,22.79
2023-03-22T14:14:46.789Z,22.82
2023-03-22T14:15:47.067Z,22.82
2023-03-22T14:16:46.807Z,22.85
2023-03-22T14:17:48.724Z,22.85
2023-03-22T14:18:45.806Z,22.80
2023-03-22T14:19:46.785Z,22.85
2023-03-22T14:20:46.818Z,22.80
2023-03-22T14:21:46.774Z,22.80
2023-03-22T14:49:45.584Z,22.76
2023-03-22T14:50:45.585Z,22.75
2023-03-22T14:51:46.575Z,22.76
2023-03-22T14:53:45.619Z,22.75
2023-03-22T14:54:46.542Z,22.76
2023-03-22T14:55:46.554Z,22.71
2023-03-22T14:56:45.555Z,22.73
2023-03-22T14:57:46.533Z,22.76
2023-03-22T14:59:45.526Z,22.72
2023-03-22T15:00:46.516Z,22.75
2023-03-22T15:03:45.487Z,22.76
2023-03-22T15:05:45.472Z,22.73
2023-03-22T15:06:45.468Z,22.75
2023-03-22T15:07:45.455Z,22.75
2023-03-22T15:08:46.475Z,22.76
2023-03-22T15:09:46.452Z,22.76
2023-03-22T15:10:46.458Z,22.76
2023-03-22T15:12:45.434Z,22.76
2023-03-22T15:13:46.404Z,22.71
2023-03-22T15:16:45.398Z,22.71
2023-03-22T15:17:46.396Z,22.69
2023-03-22T15:18:46.406Z,22.72
2023-03-22T15:20:45.375Z,22.71
2023-03-22T15:21:46.362Z,22.69
2023-03-22T15:22:46.437Z,22.73
2023-03-22T15:24:45.345Z,22.73
2023-03-22T15:25:46.360Z,22.78
2023-03-22T15:26:46.338Z,22.75
2023-03-22T15:28:46.689Z,22.75
2023-03-22T15:29:46.292Z,22.69
2023-03-22T15:31:45.326Z,22.72
2023-03-22T15:32:46.309Z,22.71
2023-03-22T15:36:45.249Z,22.68
2023-03-22T15:37:46.268Z,22.69
2023-03-22T15:39:45.235Z,22.72
2023-03-22T15:40:46.260Z,22.76
2023-03-22T15:41:46.234Z,22.78
2023-03-22T15:42:46.237Z,22.78
2023-03-22T15:43:46.221Z,22.79
2023-03-22T15:46:45.187Z,22.73
2023-03-22T15:47:46.217Z,22.75
2023-03-22T15:48:46.188Z,22.75
2023-03-22T15:49:45.172Z,22.75
2023-03-22T15:50:45.182Z,22.76
2023-03-22T15:51:46.158Z,22.76
2023-03-22T15:52:46.172Z,22.75
2023-03-22T15:54:45.144Z,22.78
2023-03-22T15:55:46.144Z,22.73
2023-03-22T15:57:45.117Z,22.72
2023-03-22T15:58:46.111Z,22.73
2023-03-22T15:59:46.116Z,22.75
2023-03-22T16:00:46.194Z,22.73
2023-03-22T16:04:45.068Z,22.73
2023-03-22T16:05:46.052Z,22.75
2023-03-22T16:06:46.094Z,22.75
2023-03-22T16:10:45.069Z,22.71
2023-03-22T16:11:46.062Z,22.73
2023-03-22T16:12:46.092Z,22.73
2023-03-22T16:13:46.079Z,22.71
2023-03-22T16:14:46.093Z,22.72
2023-03-22T16:16:45.167Z,22.71
2023-03-22T16:17:46.125Z,22.72
2023-03-22T16:18:46.174Z,22.73
2023-03-22T16:19:46.155Z,22.69
2023-03-22T16:21:45.154Z,22.71
2023-03-22T16:22:46.191Z,22.72
2023-03-22T16:26:45.227Z,22.69
2023-03-22T16:27:46.222Z,22.71
2023-03-22T16:28:46.245Z,22.69
